METAR Data

Data at: 0903 UTC 17 Nov 2018

METAR for:KPHX (Phoenix/Sky Harbor, AZ, US)
Text:KPHX 170851Z 00000KT 10SM SCT240 11/M01 A2999 RMK AO2 SLP145 T01111006 53007
Temperature: 11.1°C ( 52°F)
Dewpoint: -0.6°C ( 31°F) [RH = 44%]
Pressure (altimeter):29.99 inches Hg (1015.7 mb) [Sea level pressure: 1014.5 mb]
Winds:calm
Visibility:10 or more sm (16+ km)
Ceiling:at least 12,000 feet AGL
Clouds: scattered clouds at 24000 feet AGL